Time;durP1;ratioP1;P1;durP2;ratioP2;P2;SDS_P1;SDS_P2;PMS_P1;PMS_P2;Temp;Humidity;BMP_temperature;BMP_pressure;BME280_temperature;BME280_humidity;BME280_pressure;Samples;Min_cycle;Max_cycle;Signal;HPM_P1;HPM_P2
2023/07/05 00:01:23;;;;;;;23.10;8.17;;;19.70;99.90;;;;;;5065879;27;20482;-62
2023/07/05 00:03:51;;;;;;;19.70;7.60;;;19.70;99.90;;;;;;5081952;27;20484;-62
2023/07/05 00:06:19;;;;;;;20.50;8.13;;;19.60;99.90;;;;;;5120637;27;20479;-61
2023/07/05 00:08:46;;;;;;;28.07;8.47;;;19.80;99.90;;;;;;5121276;27;20476;-62
2023/07/05 00:11:13;;;;;;;22.57;8.37;;;19.70;99.90;;;;;;5109188;27;21565;-62
2023/07/05 00:13:41;;;;;;;23.33;9.30;;;19.80;99.90;;;;;;5097440;27;20490;-62
2023/07/05 00:16:09;;;;;;;17.10;8.77;;;19.80;99.90;;;;;;5081788;27;20473;-61
2023/07/05 00:18:37;;;;;;;23.23;9.40;;;19.80;99.90;;;;;;5095525;27;21205;-62
2023/07/05 00:21:05;;;;;;;15.10;8.77;;;19.80;99.90;;;;;;5111804;27;20478;-62
2023/07/05 00:23:36;;;;;;;18.93;8.90;;;19.70;99.90;;;;;;5071810;27;20486;-62
2023/07/05 00:26:05;;;;;;;12.07;8.73;;;19.70;99.90;;;;;;5118385;27;20482;-62
2023/07/05 00:28:33;;;;;;;35.00;11.33;;;19.80;99.90;;;;;;5113115;27;20472;-62
2023/07/05 00:31:00;;;;;;;30.17;11.27;;;;;;;;;;5129998;27;20471;-62
2023/07/05 00:33:27;;;;;;;32.33;10.37;;;19.80;99.90;;;;;;5124655;27;20467;-62
2023/07/05 00:35:54;;;;;;;19.73;9.20;;;19.80;99.90;;;;;;5092103;27;20981;-62
2023/07/05 00:38:22;;;;;;;37.53;12.87;;;22.00;99.90;;;;;;5126020;27;20491;-62
2023/07/05 00:40:51;;;;;;;31.97;12.13;;;19.70;99.90;;;;;;5106389;27;20503;-61
2023/07/05 00:43:20;;;;;;;37.23;11.80;;;19.70;99.90;;;;;;5119217;27;20801;-62
2023/07/05 00:45:53;;;;;;;25.23;11.20;;;19.70;99.90;;;;;;5120973;27;20925;-62
2023/07/05 00:48:25;;;;;;;33.83;12.40;;;19.70;99.90;;;;;;5111363;27;20490;-61
2023/07/05 00:50:56;;;;;;;48.00;12.43;;;19.80;99.90;;;;;;5123620;27;20617;-62
2023/07/05 00:53:25;;;;;;;24.90;12.57;;;19.80;99.90;;;;;;5113187;27;20505;-62
2023/07/05 00:55:57;;;;;;;30.60;13.67;;;19.90;99.90;;;;;;5122938;27;21097;-62
2023/07/05 00:58:25;;;;;;;21.10;10.47;;;20.00;99.90;;;;;;5126453;27;20475;-62
2023/07/05 01:00:52;;;;;;;25.90;11.67;;;19.90;99.90;;;;;;5102510;27;20484;-61
2023/07/05 01:03:21;;;;;;;36.90;12.80;;;19.80;99.90;;;;;;5126068;27;20480;-61
2023/07/05 01:05:50;;;;;;;34.30;12.33;;;19.70;99.90;;;;;;5121840;27;20548;-62
2023/07/05 01:08:18;;;;;;;37.20;13.07;;;;;;;;;;5116401;27;20478;-62
2023/07/05 01:10:52;;;;;;;40.27;12.90;;;19.70;99.90;;;;;;5095851;27;20489;-62
2023/07/05 01:13:27;;;;;;;31.83;9.93;;;19.70;99.90;;;;;;5088947;27;20472;-62
2023/07/05 01:16:02;;;;;;;34.10;11.30;;;19.50;99.90;;;;;;5084329;27;20679;-61
2023/07/05 01:18:37;;;;;;;38.10;11.30;;;19.50;99.90;;;;;;5109055;27;20472;-62
2023/07/05 01:21:10;;;;;;;24.10;10.20;;;19.40;99.90;;;;;;5113212;27;20476;-62
2023/07/05 01:24:02;;;;;;;29.37;8.77;;;19.30;99.90;;;;;;5111036;27;20499;-62
2023/07/05 01:26:55;;;;;;;29.80;9.10;;;19.20;99.90;;;;;;5090597;27;20467;-62
2023/07/05 01:29:53;;;;;;;25.80;7.93;;;19.10;99.90;;;;;;5115606;27;20562;-61
2023/07/05 01:32:25;;;;;;;27.60;8.60;;;19.00;99.90;;;;;;5116913;27;20475;-62
2023/07/05 01:35:00;;;;;;;24.70;8.57;;;19.00;99.90;;;;;;5107749;27;20469;-62
2023/07/05 01:37:35;;;;;;;27.13;7.40;;;19.00;99.90;;;;;;5092962;27;20491;-62
2023/07/05 01:40:02;;;;;;;35.60;12.47;;;;;;;;;;5085989;27;20799;-62
2023/07/05 01:42:32;;;;;;;28.47;9.10;;;18.90;99.90;;;;;;5098636;27;20481;-63
2023/07/05 01:45:00;;;;;;;23.67;8.97;;;18.90;99.90;;;;;;5088082;27;20843;-62
2023/07/05 01:47:34;;;;;;;34.03;9.70;;;18.90;99.90;;;;;;5098479;27;20476;-62
2023/07/05 01:50:08;;;;;;;37.67;10.50;;;18.90;99.90;;;;;;5118450;27;20486;-61
2023/07/05 01:52:43;;;;;;;26.83;7.87;;;18.90;99.90;;;;;;5113562;27;20475;-62
2023/07/05 01:55:19;;;;;;;48.00;12.17;;;18.90;99.90;;;;;;5099644;27;20475;-62
2023/07/05 01:57:54;;;;;;;31.10;9.30;;;19.00;99.90;;;;;;5084356;27;20485;-62
2023/07/05 02:00:24;;;;;;;21.80;8.93;;;18.90;99.90;;;;;;5116193;27;20468;-61
2023/07/05 02:02:57;;;;;;;21.30;8.00;;;18.90;99.90;;;;;;5117714;27;20476;-62
2023/07/05 02:05:27;;;;;;;18.37;8.47;;;18.90;99.90;;;;;;5095692;27;20517;-62
2023/07/05 02:07:55;;;;;;;36.70;10.37;;;19.00;99.90;;;;;;5116706;27;20480;-62
2023/07/05 02:10:23;;;;;;;27.03;8.50;;;19.00;99.90;;;;;;5072327;27;20482;-62
2023/07/05 02:12:52;;;;;;;21.73;7.90;;;19.00;99.90;;;;;;5114595;27;20927;-62
2023/07/05 02:15:20;;;;;;;40.30;10.30;;;19.00;99.90;;;;;;5095011;27;21015;-62
2023/07/05 02:17:47;;;;;;;25.83;7.40;;;19.00;99.90;;;;;;5105061;27;20837;-61
2023/07/05 02:20:15;;;;;;;35.73;8.30;;;19.00;99.90;;;;;;5111940;27;20479;-62
2023/07/05 02:22:42;;;;;;;39.53;9.40;;;19.00;99.90;;;;;;5110250;27;20509;-63
2023/07/05 02:25:09;;;;;;;42.90;10.50;;;19.10;99.90;;;;;;5114497;27;20478;-62
2023/07/05 02:27:37;;;;;;;27.43;6.40;;;;;;;;;;5117420;27;20483;-61
2023/07/05 02:30:05;;;;;;;44.13;10.47;;;19.00;99.90;;;;;;5098194;27;20486;-62
2023/07/05 02:32:32;;;;;;;46.40;10.40;;;;;;;;;;5093595;27;20471;-61
2023/07/05 02:35:01;;;;;;;22.80;7.23;;;19.10;99.90;;;;;;5113910;27;20469;-61
2023/07/05 02:37:32;;;;;;;27.93;7.50;;;19.20;99.90;;;;;;5112822;27;20948;-61
2023/07/05 02:39:59;;;;;;;46.03;11.60;;;19.20;99.90;;;;;;5111522;27;20479;-61
2023/07/05 02:42:26;;;;;;;33.43;8.33;;;19.20;99.90;;;;;;5082725;27;20977;-60
2023/07/05 02:44:55;;;;;;;13.30;4.73;;;;;;;;;;5112214;27;20484;-61
2023/07/05 02:47:22;;;;;;;34.93;8.07;;;;;;;;;;5073809;27;20505;-61
2023/07/05 02:49:49;;;;;;;31.83;7.20;;;;;;;;;;5092976;27;20546;-62
2023/07/05 02:52:16;;;;;;;24.33;6.57;;;19.10;99.90;;;;;;5063101;27;20815;-61
2023/07/05 02:54:45;;;;;;;21.57;6.33;;;19.20;99.90;;;;;;5079803;28;20479;-61
2023/07/05 02:57:12;;;;;;;29.37;7.90;;;;;;;;;;5084898;28;20507;-62
2023/07/05 02:59:39;;;;;;;38.63;9.80;;;19.20;99.90;;;;;;5093686;28;20490;-61
2023/07/05 03:02:06;;;;;;;31.70;8.30;;;19.20;99.90;;;;;;5090173;28;20480;-61
2023/07/05 03:04:33;;;;;;;27.33;7.27;;;;;;;;;;5089602;28;20477;-62
2023/07/05 03:07:00;;;;;;;48.07;11.83;;;19.00;99.90;;;;;;5086731;28;20484;-61
2023/07/05 03:09:27;;;;;;;33.07;8.97;;;;;;;;;;5098554;28;20485;-60
2023/07/05 03:11:55;;;;;;;23.07;7.20;;;19.00;99.90;;;;;;5096351;28;20483;-61
2023/07/05 03:14:23;;;;;;;24.40;6.70;;;18.90;99.90;;;;;;5098092;28;20592;-61
2023/07/05 03:16:50;;;;;;;21.10;6.10;;;;;;;;;;5102436;28;20477;-61
2023/07/05 03:19:18;;;;;;;34.53;8.93;;;;;;;;;;5105121;28;20830;-61
2023/07/05 03:21:45;;;;;;;24.37;6.10;;;18.80;99.90;;;;;;5099202;28;20826;-61
2023/07/05 03:24:12;;;;;;;23.90;6.07;;;;;;;;;;5091184;28;20591;-61
2023/07/05 03:26:39;;;;;;;29.73;7.37;;;18.80;99.90;;;;;;5069839;28;20787;-61
2023/07/05 03:29:07;;;;;;;57.17;12.37;;;18.80;99.90;;;;;;5092171;28;20581;-61
2023/07/05 03:31:34;;;;;;;23.27;6.10;;;18.70;99.90;;;;;;5082451;28;20983;-62
2023/07/05 03:34:01;;;;;;;39.87;9.63;;;;;;;;;;5093873;27;20510;-62
2023/07/05 03:36:29;;;;;;;32.00;8.57;;;;;;;;;;5097714;27;20489;-61
2023/07/05 03:38:56;;;;;;;42.27;10.23;;;;;;;;;;5101747;27;20483;-61
2023/07/05 03:41:24;;;;;;;34.03;8.23;;;18.50;99.90;;;;;;5097327;27;20814;-61
2023/07/05 03:43:54;;;;;;;21.87;6.47;;;18.60;99.90;;;;;;5097643;27;20481;-61
2023/07/05 03:46:23;;;;;;;33.33;8.53;;;18.50;99.90;;;;;;5084167;27;20483;-61
2023/07/05 03:48:50;;;;;;;29.63;8.17;;;;;;;;;;5094228;27;20481;-61
2023/07/05 03:51:21;;;;;;;29.77;8.30;;;18.40;99.90;;;;;;5078680;28;20570;-62
2023/07/05 03:53:49;;;;;;;24.30;7.27;;;18.40;99.90;;;;;;5079890;28;20472;-61
2023/07/05 03:56:17;;;;;;;35.70;9.63;;;;;;;;;;5073857;28;20518;-60
2023/07/05 03:58:44;;;;;;;27.63;7.27;;;18.30;99.90;;;;;;5094925;27;20857;-61
2023/07/05 04:01:14;;;;;;;40.67;10.43;;;18.40;99.90;;;;;;5104999;27;20851;-61
2023/07/05 04:03:43;;;;;;;39.17;9.10;;;18.40;99.90;;;;;;5100841;27;21190;-61
2023/07/05 04:06:11;;;;;;;55.93;12.00;;;18.40;99.90;;;;;;5108291;27;20640;-61
2023/07/05 04:08:39;;;;;;;28.50;7.57;;;18.40;99.90;;;;;;5101072;27;20473;-61
2023/07/05 04:11:06;;;;;;;70.93;15.73;;;18.30;99.90;;;;;;5103761;27;20512;-61
2023/07/05 04:13:33;;;;;;;29.47;9.40;;;18.10;99.90;;;;;;5113269;27;20542;-60
2023/07/05 04:16:02;;;;;;;56.83;14.73;;;17.80;99.90;;;;;;5105906;27;20996;-61
2023/07/05 04:18:29;;;;;;;28.53;8.40;;;17.50;99.90;;;;;;5090181;27;20467;-61
2023/07/05 04:20:58;;;;;;;47.07;12.90;;;17.30;99.90;;;;;;5121000;27;20476;-61
2023/07/05 04:23:26;;;;;;;25.50;8.50;;;17.30;99.90;;;;;;5120734;27;20841;-62
2023/07/05 04:25:59;;;;;;;45.23;13.50;;;17.10;99.90;;;;;;5118571;27;20467;-61
2023/07/05 04:28:26;;;;;;;36.23;9.80;;;;;;;;;;5117463;27;20536;-61
2023/07/05 04:30:54;;;;;;;32.83;10.77;;;;;;;;;;5090828;27;21004;-62
2023/07/05 04:33:20;;;;;;;46.83;12.00;;;16.90;99.90;;;;;;5118195;27;20621;-62
2023/07/05 04:35:47;;;;;;;44.47;12.03;;;;;;;;;;5116781;27;20962;-61
2023/07/05 04:38:16;;;;;;;39.13;11.80;;;16.60;99.90;;;;;;5115262;27;22173;-61
2023/07/05 04:40:43;;;;;;;29.90;9.30;;;16.50;99.90;;;;;;5117562;27;20768;-61
2023/07/05 04:43:10;;;;;;;48.80;12.67;;;16.50;99.90;;;;;;5115502;27;20471;-62
2023/07/05 04:45:37;;;;;;;39.73;12.27;;;;;;;;;;5117834;27;20476;-62
2023/07/05 04:48:04;;;;;;;67.33;15.63;;;;;;;;;;5110748;27;20487;-61
2023/07/05 04:50:31;;;;;;;38.87;11.50;;;;;;;;;;5104252;27;20481;-61
2023/07/05 04:52:58;;;;;;;63.43;15.90;;;;;;;;;;5104764;27;20501;-62
2023/07/05 04:55:26;;;;;;;35.57;10.70;;;16.00;99.90;;;;;;5118256;27;20479;-61
2023/07/05 04:57:54;;;;;;;36.90;12.07;;;;;;;;;;5116989;27;20472;-61
2023/07/05 05:00:24;;;;;;;30.30;10.77;;;;;;;;;;5116970;27;20607;-61
2023/07/05 05:02:51;;;;;;;40.70;12.67;;;;;;;;;;5116382;27;20843;-61
2023/07/05 05:05:18;;;;;;;39.03;12.80;;;15.90;99.90;;;;;;5117472;27;20995;-62
2023/07/05 05:07:45;;;;;;;34.43;12.53;;;16.10;99.90;;;;;;5114119;27;20488;-61
2023/07/05 05:10:12;;;;;;;38.37;11.43;;;;;;;;;;5115107;27;20837;-61
2023/07/05 05:12:40;;;;;;;41.77;11.57;;;16.10;99.90;;;;;;5115326;27;20487;-61
2023/07/05 05:15:08;;;;;;;76.30;17.40;;;16.10;99.90;;;;;;5114040;27;20476;-61
2023/07/05 05:17:35;;;;;;;32.93;9.70;;;;;;;;;;5116234;27;21630;-62
2023/07/05 05:20:03;;;;;;;55.43;14.90;;;16.30;99.90;;;;;;5115710;27;20485;-61
2023/07/05 05:22:30;;;;;;;36.23;10.00;;;;;;;;;;5115879;27;20480;-61
2023/07/05 05:24:57;;;;;;;50.63;13.57;;;;;;;;;;5115117;27;20529;-62
2023/07/05 05:27:25;;;;;;;31.30;9.10;;;;;;;;;;5104996;27;20534;-62
2023/07/05 05:29:53;;;;;;;26.33;8.90;;;16.60;99.90;;;;;;5102611;27;20481;-61
2023/07/05 05:32:20;;;;;;;37.73;10.20;;;;;;;;;;5113506;27;20468;-61
2023/07/05 05:34:47;;;;;;;34.20;11.07;;;;;;;;;;5098688;27;20469;-61
2023/07/05 05:37:14;;;;;;;37.60;10.97;;;;;;;;;;5098420;27;20907;-62
2023/07/05 05:39:42;;;;;;;33.63;11.47;;;;;;;;;;5115821;27;20492;-61
2023/07/05 05:42:09;;;;;;;57.30;14.33;;;;;;;;;;5114353;27;20476;-62
2023/07/05 05:44:36;;;;;;;46.97;10.80;;;;;;;;;;5117133;27;20480;-62
2023/07/05 05:47:04;;;;;;;53.87;14.43;;;16.50;99.90;;;;;;5114189;27;20479;-61
2023/07/05 05:49:31;;;;;;;48.10;13.07;;;;;;;;;;5109156;27;20465;-61
2023/07/05 05:51:59;;;;;;;68.20;17.80;;;;;;;;;;5112876;27;20475;-61
2023/07/05 05:54:26;;;;;;;40.47;10.53;;;;;;;;;;5115948;27;21545;-61
2023/07/05 05:56:53;;;;;;;36.73;11.67;;;;;;;;;;5116162;27;20469;-61
2023/07/05 05:59:20;;;;;;;41.90;12.53;;;;;;;;;;5117750;27;21074;-62
2023/07/05 06:01:47;;;;;;;39.13;11.73;;;16.60;99.90;;;;;;5116277;27;20477;-62
2023/07/05 06:04:16;;;;;;;42.07;12.60;;;16.60;99.90;;;;;;5114635;27;20819;-61
2023/07/05 06:06:42;;;;;;;31.33;9.80;;;16.50;99.90;;;;;;5116285;27;20792;-61
2023/07/05 06:09:10;;;;;;;37.60;11.47;;;;;;;;;;5110848;27;20479;-60
2023/07/05 06:11:37;;;;;;;53.47;14.30;;;;;;;;;;5115246;27;20821;-61
2023/07/05 06:14:04;;;;;;;51.97;13.23;;;16.70;99.90;;;;;;5113727;27;20480;-61
2023/07/05 06:16:31;;;;;;;39.43;10.43;;;;;;;;;;5116157;27;20482;-61
2023/07/05 06:18:58;;;;;;;53.10;13.90;;;;;;;;;;5116608;27;20471;-61
2023/07/05 06:21:26;;;;;;;39.30;10.97;;;16.50;99.90;;;;;;5118600;27;20511;-60
2023/07/05 06:23:53;;;;;;;28.83;10.67;;;;;;;;;;5092378;27;20483;-61
2023/07/05 06:26:20;;;;;;;32.70;9.77;;;;;;;;;;5114454;27;20472;-61
2023/07/05 06:28:48;;;;;;;34.33;9.20;;;16.50;99.90;;;;;;5118623;27;20858;-61
2023/07/05 06:31:16;;;;;;;42.23;12.00;;;;;;;;;;5116219;27;20472;-60
2023/07/05 06:33:43;;;;;;;32.83;9.73;;;16.70;99.90;;;;;;5093534;27;20492;-61
2023/07/05 06:36:10;;;;;;;52.50;12.90;;;16.60;99.40;;;;;;5112417;27;20987;-61
2023/07/05 06:38:39;;;;;;;36.63;10.50;;;16.60;99.90;;;;;;5118051;27;20473;-60
2023/07/05 06:41:06;;;;;;;52.43;12.60;;;;;;;;;;5087484;27;20475;-61
2023/07/05 06:43:33;;;;;;;34.97;9.50;;;;;;;;;;5119416;27;20966;-61
2023/07/05 06:46:00;;;;;;;64.97;13.87;;;;;;;;;;5096889;27;20470;-61
2023/07/05 06:48:27;;;;;;;34.57;8.90;;;16.60;96.20;;;;;;5116115;27;20984;-62
2023/07/05 06:50:55;;;;;;;34.57;10.40;;;16.70;96.50;;;;;;5110570;27;21063;-61
2023/07/05 06:53:23;;;;;;;27.90;7.83;;;16.80;95.20;;;;;;5116610;27;20981;-61
2023/07/05 06:55:51;;;;;;;35.00;9.70;;;16.90;95.90;;;;;;5080199;27;20503;-61
2023/07/05 06:58:20;;;;;;;31.57;8.60;;;17.00;95.50;;;;;;5099313;27;20545;-61
2023/07/05 07:00:47;;;;;;;40.60;10.37;;;17.20;96.00;;;;;;5114768;27;20514;-61
2023/07/05 07:03:14;;;;;;;47.87;11.40;;;;;;;;;;5114603;27;20494;-61
2023/07/05 07:05:41;;;;;;;33.00;10.40;;;17.20;95.40;;;;;;5115080;27;20502;-61
2023/07/05 07:08:08;;;;;;;56.73;13.63;;;;;;;;;;5114811;27;20483;-61
2023/07/05 07:10:36;;;;;;;37.37;9.70;;;;;;;;;;5110871;27;20994;-61
2023/07/05 07:13:05;;;;;;;43.53;12.63;;;17.30;96.10;;;;;;5112188;27;20549;-62
2023/07/05 07:15:33;;;;;;;41.50;9.97;;;;;;;;;;5098210;27;20805;-61
2023/07/05 07:18:00;;;;;;;79.43;16.60;;;;;;;;;;5112177;27;20847;-61
2023/07/05 07:20:27;;;;;;;22.80;6.20;;;;;;;;;;5111406;27;20476;-62
2023/07/05 07:22:54;;;;;;;29.00;8.73;;;;;;;;;;5113034;27;20880;-61
2023/07/05 07:25:21;;;;;;;31.60;9.20;;;;;;;;;;5111959;27;20479;-61
2023/07/05 07:27:48;;;;;;;53.23;10.70;;;17.30;94.10;;;;;;5112526;27;20992;-61
2023/07/05 07:30:16;;;;;;;35.13;9.33;;;17.20;93.70;;;;;;5110561;27;20479;-61
2023/07/05 07:32:45;;;;;;;26.93;8.20;;;17.30;94.10;;;;;;5090261;27;20492;-62
2023/07/05 07:35:12;;;;;;;51.10;10.17;;;17.40;93.90;;;;;;5110006;27;20852;-61
2023/07/05 07:37:39;;;;;;;40.80;9.73;;;;;;;;;;5115848;27;21012;-61
2023/07/05 07:40:08;;;;;;;53.23;11.97;;;17.50;93.10;;;;;;5113423;27;20721;-62
2023/07/05 07:42:35;;;;;;;32.03;7.50;;;17.40;92.40;;;;;;5113618;27;20891;-61
2023/07/05 07:45:02;;;;;;;44.23;11.30;;;17.30;93.20;;;;;;5114111;27;20476;-61
2023/07/05 07:47:30;;;;;;;23.80;7.40;;;17.50;92.50;;;;;;5095203;27;20834;-61
2023/07/05 07:49:57;;;;;;;45.27;11.53;;;;;;;;;;5104947;27;20483;-61
2023/07/05 07:52:24;;;;;;;39.83;10.70;;;;;;;;;;5105693;27;20479;-60
2023/07/05 07:54:55;;;;;;;37.37;9.73;;;;;;;;;;5120729;27;20483;-61
2023/07/05 07:57:22;;;;;;;51.90;12.57;;;18.10;92.10;;;;;;5118528;27;20474;-61
2023/07/05 07:59:49;;;;;;;32.97;8.93;;;;;;;;;;5116895;27;20468;-60
2023/07/05 08:02:16;;;;;;;45.97;10.77;;;;;;;;;;5116009;27;20671;-61
2023/07/05 08:04:46;;;;;;;36.60;7.77;;;18.40;91.80;;;;;;5119693;27;20488;-61
2023/07/05 08:07:14;;;;;;;54.03;12.63;;;;;;;;;;5094576;27;20807;-61
2023/07/05 08:09:41;;;;;;;37.33;9.73;;;18.20;90.50;;;;;;5122683;27;20477;-60
2023/07/05 08:12:09;;;;;;;74.10;15.97;;;18.30;90.40;;;;;;5119491;27;20837;-61
2023/07/05 08:14:36;;;;;;;38.97;9.43;;;;;;;;;;5125072;27;20481;-62
2023/07/05 08:17:03;;;;;;;51.87;12.50;;;;;;;;;;5123681;27;20532;-62
2023/07/05 08:19:31;;;;;;;40.40;9.10;;;;;;;;;;5125781;27;20472;-62
2023/07/05 08:21:59;;;;;;;23.07;9.10;;;18.50;90.00;;;;;;5126046;27;20487;-61
2023/07/05 08:24:26;;;;;;;25.40;7.57;;;;;;;;;;5121953;27;20481;-63
2023/07/05 08:26:54;;;;;;;31.13;9.23;;;;;;;;;;5125723;27;20471;-62
2023/07/05 08:29:21;;;;;;;34.33;9.20;;;;;;;;;;5089908;27;21181;-61
2023/07/05 08:31:48;;;;;;;30.87;7.87;;;18.70;90.40;;;;;;5118995;27;20480;-62
2023/07/05 08:34:15;;;;;;;42.27;10.97;;;18.70;90.20;;;;;;5122486;27;20462;-61
2023/07/05 08:36:42;;;;;;;39.93;9.70;;;18.40;90.90;;;;;;5126008;27;20474;-60
2023/07/05 08:39:12;;;;;;;48.50;12.33;;;18.40;90.60;;;;;;5121205;27;20950;-60
2023/07/05 08:42:01;;;;;;;32.20;9.07;;;18.50;90.70;;;;;;5121973;27;20801;-61
2023/07/05 08:44:52;;;;;;;39.13;8.63;;;18.80;90.50;;;;;;5121099;27;20540;-60
2023/07/05 08:47:27;;;;;;;41.43;11.10;;;19.20;89.50;;;;;;5115900;27;20479;-60
2023/07/05 08:50:06;;;;;;;26.77;8.03;;;19.30;90.80;;;;;;5121189;27;20486;-61
2023/07/05 08:52:37;;;;;;;32.47;8.43;;;19.40;88.10;;;;;;5123033;27;20855;-61
2023/07/05 08:55:08;;;;;;;58.00;12.67;;;19.40;85.80;;;;;;5119052;27;20709;-61
2023/07/05 08:57:43;;;;;;;29.67;8.37;;;19.50;86.90;;;;;;5126492;27;20804;-60
2023/07/05 09:00:15;;;;;;;49.70;12.20;;;19.70;87.70;;;;;;5120038;27;20547;-60
2023/07/05 09:02:42;;;;;;;38.93;9.97;;;;;;;;;;5121193;27;20555;-61
2023/07/05 09:05:16;;;;;;;58.73;13.03;;;19.90;86.30;;;;;;5117899;27;20478;-62
2023/07/05 09:07:53;;;;;;;34.87;8.60;;;20.00;87.70;;;;;;5120332;27;20505;-61
2023/07/05 09:10:28;;;;;;;56.17;13.33;;;20.30;87.60;;;;;;5120519;27;20836;-61
2023/07/05 09:13:05;;;;;;;43.67;10.17;;;20.10;85.00;;;;;;5109526;27;20562;-61
2023/07/05 09:15:37;;;;;;;50.23;11.00;;;20.00;84.20;;;;;;5118567;27;20565;-61
2023/07/05 09:18:22;;;;;;;40.50;10.90;;;20.00;86.00;;;;;;5120704;27;20536;-61
2023/07/05 09:21:11;;;;;;;41.60;11.00;;;20.30;87.80;;;;;;5121469;27;20814;-62
2023/07/05 09:23:41;;;;;;;40.00;10.60;;;20.40;85.90;;;;;;5117817;27;21042;-62
2023/07/05 09:26:15;;;;;;;55.43;13.53;;;20.40;84.30;;;;;;5122104;27;20922;-62
2023/07/05 09:28:49;;;;;;;29.23;8.93;;;20.20;84.30;;;;;;5120200;27;20483;-61
2023/07/05 09:31:17;;;;;;;29.03;8.27;;;20.30;85.40;;;;;;5117914;27;20465;-62
2023/07/05 09:33:47;;;;;;;30.77;8.43;;;20.30;82.40;;;;;;5111447;27;21136;-62
2023/07/05 09:36:23;;;;;;;52.13;11.77;;;20.20;84.20;;;;;;5113076;27;20590;-61
2023/07/05 09:38:56;;;;;;;29.03;8.57;;;20.40;84.20;;;;;;5118414;27;20553;-62
2023/07/05 09:41:40;;;;;;;36.20;9.87;;;20.60;84.00;;;;;;5122274;27;20464;-62
2023/07/05 09:44:07;;;;;;;70.87;17.07;;;20.50;84.80;;;;;;5116670;27;20843;-62
2023/07/05 09:46:37;;;;;;;34.80;9.70;;;20.50;86.40;;;;;;5106045;27;20465;-62
2023/07/05 09:49:12;;;;;;;52.83;12.83;;;20.60;82.80;;;;;;5097555;27;20491;-62
2023/07/05 09:51:41;;;;;;;30.50;8.20;;;18.40;81.50;;;;;;5119535;27;20490;-62
2023/07/05 09:54:13;;;;;;;55.67;13.50;;;20.60;84.50;;;;;;5119859;27;20478;-62
2023/07/05 09:56:57;;;;;;;29.93;8.47;;;20.90;85.50;;;;;;5120945;27;20482;-62
2023/07/05 09:59:24;;;;;;;38.33;10.20;;;20.90;83.20;;;;;;5115710;27;20806;-62
2023/07/05 10:01:54;;;;;;;45.67;12.50;;;20.80;83.40;;;;;;5120800;27;20904;-61
2023/07/05 10:04:26;;;;;;;31.17;8.83;;;21.00;81.50;;;;;;5117824;27;20956;-62
2023/07/05 10:06:53;;;;;;;27.97;8.77;;;21.00;81.20;;;;;;5103505;27;20488;-61
2023/07/05 10:09:22;;;;;;;34.63;9.37;;;21.00;80.60;;;;;;5127652;27;20973;-61
2023/07/05 10:11:52;;;;;;;28.80;8.17;;;20.90;82.80;;;;;;5123540;27;20486;-62
2023/07/05 10:14:23;;;;;;;39.40;10.03;;;21.10;83.50;;;;;;5124997;27;20531;-63
2023/07/05 10:16:52;;;;;;;25.03;6.53;;;21.20;80.60;;;;;;5129227;27;20467;-62
2023/07/05 10:19:24;;;;;;;44.63;11.33;;;21.40;82.20;;;;;;5123804;27;20818;-62
2023/07/05 10:21:54;;;;;;;30.30;8.13;;;21.30;80.90;;;;;;5122346;27;20463;-62
2023/07/05 10:24:22;;;;;;;29.57;8.67;;;21.10;82.50;;;;;;5129043;27;20472;-62
2023/07/05 10:27:00;;;;;;;35.17;9.47;;;21.10;81.60;;;;;;5121322;27;20467;-63
2023/07/05 10:29:30;;;;;;;35.50;8.23;;;21.20;80.30;;;;;;5125162;27;20885;-63
2023/07/05 10:32:00;;;;;;;35.40;9.97;;;21.00;78.10;;;;;;5127233;27;21040;-62
2023/07/05 10:34:27;;;;;;;33.83;9.70;;;21.30;81.30;;;;;;5119722;27;20580;-62
2023/07/05 10:36:55;;;;;;;32.47;9.47;;;21.40;82.20;;;;;;5124951;27;21972;-62
2023/07/05 10:39:26;;;;;;;39.23;9.70;;;21.50;78.80;;;;;;5127250;27;20478;-62
2023/07/05 10:41:55;;;;;;;30.43;8.90;;;21.40;82.10;;;;;;5120020;27;21044;-63
2023/07/05 10:44:27;;;;;;;31.70;8.00;;;21.30;80.70;;;;;;5126563;27;20467;-62
2023/07/05 10:46:56;;;;;;;33.40;9.57;;;21.30;78.30;;;;;;5097818;27;20505;-62
2023/07/05 10:49:24;;;;;;;34.20;8.90;;;21.40;80.60;;;;;;5094475;27;20476;-62
2023/07/05 10:51:53;;;;;;;29.20;7.93;;;21.40;80.10;;;;;;5094852;27;21200;-62
2023/07/05 10:54:24;;;;;;;42.97;12.17;;;;;;;;;;5118317;27;20464;-62
2023/07/05 10:56:51;;;;;;;33.20;8.80;;;;;;;;;;5123662;27;20824;-64
2023/07/05 10:59:26;;;;;;;48.90;12.10;;;21.60;78.50;;;;;;5094949;27;20850;-63
2023/07/05 11:01:58;;;;;;;27.13;8.63;;;21.70;77.40;;;;;;5106088;27;20478;-63
2023/07/05 11:04:29;;;;;;;39.73;8.80;;;21.70;78.10;;;;;;5092025;27;20917;-62
2023/07/05 11:07:06;;;;;;;20.27;7.30;;;21.50;76.30;;;;;;5095603;27;21185;-62
2023/07/05 11:09:35;;;;;;;60.53;14.23;;;;;;;;;;5113919;27;20889;-63
2023/07/05 11:12:05;;;;;;;48.27;11.73;;;21.70;77.30;;;;;;5119828;27;20476;-62
2023/07/05 11:14:33;;;;;;;35.23;8.50;;;21.80;75.90;;;;;;5120240;27;20472;-62
2023/07/05 11:17:02;;;;;;;65.87;15.37;;;22.10;79.40;;;;;;5116267;27;20477;-62
2023/07/05 11:19:30;;;;;;;48.73;11.33;;;22.20;76.00;;;;;;5123277;27;20909;-62
2023/07/05 11:21:58;;;;;;;39.67;10.57;;;22.30;75.60;;;;;;5121199;27;20467;-61
2023/07/05 11:24:44;;;;;;;33.93;9.27;;;22.00;76.10;;;;;;5117254;27;20471;-62
2023/07/05 11:27:51;;;;;;;44.93;10.23;;;22.00;76.40;;;;;;5124689;27;21029;-62
2023/07/05 11:30:38;;;;;;;38.70;10.17;;;22.00;73.30;;;;;;5123443;27;20472;-62
2023/07/05 11:33:21;;;;;;;54.90;12.47;;;21.90;76.10;;;;;;5113166;27;20477;-62
2023/07/05 11:35:50;;;;;;;33.23;9.07;;;22.10;73.90;;;;;;5127615;27;20474;-63
2023/07/05 11:39:06;;;;;;;32.03;8.90;;;22.30;75.00;;;;;;5122208;27;20476;-62
2023/07/05 11:41:37;;;;;;;44.07;10.87;;;22.50;73.80;;;;;;5104167;27;20471;-63
2023/07/05 11:44:05;;;;;;;51.60;12.70;;;22.50;74.40;;;;;;5120197;27;20482;-63
2023/07/05 11:46:41;;;;;;;34.90;8.87;;;23.30;73.50;;;;;;5118201;27;20471;-63
2023/07/05 11:49:39;;;;;;;57.60;13.37;;;22.50;72.80;;;;;;5121140;27;20471;-62
2023/07/05 11:52:13;;;;;;;55.50;13.60;;;22.20;73.40;;;;;;5103625;27;20473;-62
2023/07/05 11:54:58;;;;;;;23.13;6.67;;;22.10;74.60;;;;;;5120073;27;20476;-62
2023/07/05 11:57:26;;;;;;;27.80;7.47;;;22.40;72.10;;;;;;5124009;27;20844;-62
2023/07/05 12:00:09;;;;;;;35.23;9.90;;;22.60;73.80;;;;;;5123968;27;20583;-62
2023/07/05 12:02:46;;;;;;;48.53;10.90;;;22.60;72.30;;;;;;5110272;27;20527;-62
2023/07/05 12:05:17;;;;;;;47.70;12.10;;;22.60;74.60;;;;;;5124554;27;20472;-63
2023/07/05 12:07:47;;;;;;;38.87;9.70;;;22.40;72.10;;;;;;5121552;27;20958;-62
2023/07/05 12:10:22;;;;;;;27.00;7.70;;;22.40;74.00;;;;;;5122108;27;20904;-63
2023/07/05 12:12:49;;;;;;;32.17;8.97;;;22.40;73.70;;;;;;5099682;27;20518;-62
2023/07/05 12:15:16;;;;;;;41.57;10.30;;;22.40;73.20;;;;;;5119689;27;20508;-63
2023/07/05 12:17:43;;;;;;;36.30;10.13;;;22.60;72.40;;;;;;5121251;27;20510;-62
2023/07/05 12:20:30;;;;;;;48.60;12.10;;;22.80;71.80;;;;;;5123488;27;20837;-63
2023/07/05 12:22:58;;;;;;;46.50;11.43;;;22.90;72.00;;;;;;5090299;27;20445;-63
2023/07/05 12:25:26;;;;;;;33.13;8.97;;;22.70;71.80;;;;;;5124202;27;20449;-63
2023/07/05 12:27:54;;;;;;;30.40;9.07;;;22.70;72.00;;;;;;5117396;27;20452;-62
2023/07/05 12:30:23;;;;;;;35.13;9.87;;;22.70;74.60;;;;;;5123854;27;20478;-63
2023/07/05 12:32:51;;;;;;;24.13;7.67;;;22.60;73.70;;;;;;5123360;27;20481;-62
2023/07/05 12:35:22;;;;;;;25.03;7.57;;;18.80;69.60;;;;;;5122875;27;21065;-62
2023/07/05 12:37:51;;;;;;;31.17;8.37;;;22.50;71.80;;;;;;5118936;27;20477;-62
2023/07/05 12:40:25;;;;;;;49.73;11.97;;;22.40;71.70;;;;;;5126750;27;20558;-62
2023/07/05 12:42:54;;;;;;;44.07;11.20;;;22.30;73.70;;;;;;5116930;27;20540;-62
2023/07/05 12:45:28;;;;;;;33.47;8.87;;;22.40;74.50;;;;;;5124549;27;20710;-62
2023/07/05 12:47:56;;;;;;;41.90;10.67;;;22.50;73.20;;;;;;5110710;27;20857;-63
2023/07/05 12:50:24;;;;;;;54.57;13.33;;;22.60;74.30;;;;;;5120647;27;20474;-62
2023/07/05 12:53:07;;;;;;;31.80;8.50;;;;;;;;;;5117828;27;20887;-63
2023/07/05 12:55:36;;;;;;;42.30;10.33;;;22.70;73.20;;;;;;5114536;27;20510;-63
2023/07/05 12:58:06;;;;;;;56.20;13.50;;;22.70;74.30;;;;;;5117681;27;20477;-63
2023/07/05 13:00:34;;;;;;;28.43;7.83;;;22.90;74.30;;;;;;5098017;27;20829;-63
2023/07/05 13:03:03;;;;;;;56.03;13.53;;;;;;;;;;5117889;27;20443;-63
2023/07/05 13:05:31;;;;;;;35.73;8.47;;;22.80;71.00;;;;;;5093009;27;20471;-63
2023/07/05 13:08:02;;;;;;;40.60;9.40;;;22.70;71.10;;;;;;5122878;27;20446;-62
2023/07/05 13:10:36;;;;;;;40.90;10.40;;;22.70;72.40;;;;;;5118131;27;20510;-62
2023/07/05 13:13:29;;;;;;;57.43;12.80;;;22.90;71.60;;;;;;5091062;27;20771;-63